Time;durP1;ratioP1;P1;durP2;ratioP2;P2;SDS_P1;SDS_P2;PMS_P1;PMS_P2;Temp;Humidity;BMP_temperature;BMP_pressure;BME280_temperature;BME280_humidity;BME280_pressure;Samples;Min_cycle;Max_cycle;Signal;HPM_P1;HPM_P2
2023/03/25 00:03:36;;;;;;;2.67;0.80;;;7.60;99.90;;;;;;20898509;28;19928;-78
2023/03/25 00:13:36;;;;;;;2.33;0.65;;;7.60;99.90;;;;;;20855595;28;20086;-78
2023/03/25 00:23:38;;;;;;;1.53;0.60;;;7.90;99.90;;;;;;20856532;28;20485;-78
2023/03/25 00:33:42;;;;;;;1.58;0.50;;;7.90;99.90;;;;;;20886286;28;20049;-79
2023/03/25 00:43:44;;;;;;;8.85;1.00;;;7.90;99.90;;;;;;20919910;28;20033;-78
2023/03/25 00:53:45;;;;;;;6.22;0.90;;;8.20;99.90;;;;;;20906433;28;20032;-78
2023/03/25 01:03:47;;;;;;;7.30;0.80;;;8.30;99.90;;;;;;20908773;28;20561;-78
2023/03/25 01:13:49;;;;;;;7.70;1.25;;;8.30;99.90;;;;;;20922336;28;20068;-78
2023/03/25 01:23:50;;;;;;;8.25;0.93;;;8.40;99.90;;;;;;20921489;28;20511;-79
2023/03/25 01:33:52;;;;;;;5.35;1.00;;;8.40;99.90;;;;;;20911785;28;20036;-79
2023/03/25 01:44:19;;;;;;;;;;;8.40;99.90;;;;;;20911501;28;20446;-78
2023/03/25 01:54:21;;;;;;;6.53;1.15;;;8.60;99.90;;;;;;20898590;28;19956;-77
2023/03/25 02:04:37;;;;;;;;;;;8.40;99.90;;;;;;20892669;28;20032;-78
2023/03/25 02:14:39;;;;;;;3.47;0.70;;;8.40;99.90;;;;;;20910492;28;20275;-78
2023/03/25 02:25:18;;;;;;;6.13;0.80;;;8.50;99.90;;;;;;20891063;28;20392;-78
2023/03/25 02:35:38;;;;;;;1.85;0.70;;;8.70;99.90;;;;;;20887748;28;20029;-79
2023/03/25 02:45:46;;;;;;;2.85;0.40;;;7.70;99.90;;;;;;20868552;28;20116;-78
2023/03/25 02:55:50;;;;;;;2.15;0.50;;;6.20;99.90;;;;;;20916641;28;20033;-78
2023/03/25 03:05:54;;;;;;;7.80;0.50;;;5.90;99.90;;;;;;20921543;28;20044;-78
2023/03/25 03:16:07;;;;;;;0.50;0.50;;;5.80;99.90;;;;;;20921535;28;20057;-78
2023/03/25 03:26:20;;;;;;;2.08;0.57;;;5.50;99.90;;;;;;20920985;28;20415;-79
2023/03/25 03:36:26;;;;;;;0.82;0.50;;;5.30;99.90;;;;;;20920677;28;20037;-78
2023/03/25 03:46:33;;;;;;;2.72;0.40;;;5.30;99.90;;;;;;20916129;28;20045;-79
2023/03/25 03:56:40;;;;;;;0.73;0.47;;;5.30;99.90;;;;;;20912773;28;20055;-78
2023/03/25 04:07:09;;;;;;;0.50;0.35;;;5.30;99.90;;;;;;20909917;28;20094;-78
2023/03/25 04:17:10;;;;;;;0.43;0.40;;;5.30;99.90;;;;;;20910361;28;20037;-78
2023/03/25 04:27:12;;;;;;;4.90;0.40;;;5.40;99.90;;;;;;20909703;28;20028;-78
2023/03/25 04:37:13;;;;;;;2.30;0.80;;;5.40;99.90;;;;;;20912773;28;20488;-78
2023/03/25 04:47:23;;;;;;;0.80;0.38;;;5.30;99.90;;;;;;20911163;28;20417;-78
2023/03/25 04:57:25;;;;;;;1.25;0.40;;;5.30;99.90;;;;;;20909898;28;20029;-78
2023/03/25 05:07:28;;;;;;;1.50;0.50;;;5.20;99.90;;;;;;20919870;28;20085;-78
2023/03/25 05:17:29;;;;;;;2.05;0.40;;;5.20;99.90;;;;;;20923386;28;20522;-78
2023/03/25 05:27:30;;;;;;;0.50;0.50;;;5.10;99.90;;;;;;20922217;28;20120;-78
2023/03/25 05:37:31;;;;;;;;;;;5.10;99.90;;;;;;20921628;28;20483;-77
2023/03/25 05:47:31;;;;;;;0.60;0.60;;;5.20;99.90;;;;;;20919008;28;19930;-78
2023/03/25 05:57:32;;;;;;;;;;;5.30;99.90;;;;;;20919207;28;20029;-78
2023/03/25 06:07:33;;;;;;;1.87;0.80;;;5.40;99.90;;;;;;20917144;28;19968;-78
2023/03/25 06:17:37;;;;;;;;;;;5.40;99.90;;;;;;20917189;28;20057;-78
2023/03/25 06:27:39;;;;;;;1.45;0.65;;;5.60;99.90;;;;;;20920005;28;19954;-79
2023/03/25 06:37:40;;;;;;;1.95;0.80;;;5.70;99.90;;;;;;20922005;28;20155;-78
2023/03/25 06:47:48;;;;;;;14.85;7.03;;;5.90;99.90;;;;;;20919206;28;20522;-78
2023/03/25 06:57:48;;;;;;;;;;;6.10;99.90;;;;;;20911524;28;20029;-76
2023/03/25 07:07:49;;;;;;;6.82;1.80;;;6.20;99.90;;;;;;20909836;28;20279;-76
2023/03/25 07:17:51;;;;;;;;;;;6.30;99.90;;;;;;20910074;28;20082;-77
2023/03/25 07:27:52;;;;;;;4.57;1.70;;;6.40;99.90;;;;;;20908113;28;19931;-77
2023/03/25 07:37:54;;;;;;;4.28;1.92;;;6.40;99.90;;;;;;20908550;28;20082;-76
2023/03/25 07:47:55;;;;;;;;;;;6.40;99.90;;;;;;20904898;28;20033;-77
2023/03/25 07:57:57;;;;;;;3.63;1.67;;;6.40;99.90;;;;;;20902974;28;19966;-78
2023/03/25 08:08:01;;;;;;;5.18;1.80;;;6.40;99.90;;;;;;20893838;28;20560;-77
2023/03/25 08:18:04;;;;;;;6.90;1.65;;;6.30;99.90;;;;;;20904833;28;20086;-77
2023/03/25 08:28:05;;;;;;;7.85;1.23;;;6.50;99.90;;;;;;20906272;28;20609;-78
2023/03/25 08:38:06;;;;;;;2.83;0.93;;;6.50;99.90;;;;;;20912039;28;20029;-77
2023/03/25 08:48:06;;;;;;;;;;;6.70;99.90;;;;;;20927111;28;20035;-78
2023/03/25 08:58:07;;;;;;;21.10;6.60;;;6.70;99.90;;;;;;20906485;28;20446;-78
2023/03/25 09:08:08;;;;;;;21.73;9.98;;;7.00;99.90;;;;;;20919804;28;20075;-77
2023/03/25 09:18:09;;;;;;;6.53;1.75;;;7.20;99.90;;;;;;20919453;28;20450;-78
2023/03/25 09:28:10;;;;;;;6.82;1.20;;;7.30;99.90;;;;;;20921439;28;20403;-78
2023/03/25 09:38:11;;;;;;;7.07;2.93;;;7.30;99.90;;;;;;20908650;28;20504;-78
2023/03/25 09:48:36;;;;;;;4.90;1.40;;;7.50;99.90;;;;;;20921002;28;20330;-78
2023/03/25 09:58:44;;;;;;;10.25;6.50;;;7.70;99.90;;;;;;20921246;28;20391;-78
2023/03/25 10:09:00;;;;;;;10.95;2.78;;;7.90;99.90;;;;;;20919269;28;20677;-74
2023/03/25 10:19:23;;;;;;;0.70;0.40;;;7.60;99.90;;;;;;20856820;28;20033;-78
2023/03/25 10:29:36;;;;;;;0.40;0.30;;;7.40;99.90;;;;;;20866971;28;20115;-78
2023/03/25 10:39:44;;;;;;;2.20;0.30;;;7.80;99.90;;;;;;20865919;28;20036;-77
2023/03/25 10:49:46;;;;;;;1.92;0.30;;;9.60;99.90;;;;;;20867240;28;20021;-78
2023/03/25 11:00:25;;;;;;;0.95;0.50;;;8.80;99.90;;;;;;20861949;28;20111;-77
2023/03/25 11:10:30;;;;;;;2.22;0.55;;;9.40;99.90;;;;;;20830450;28;20045;-78
2023/03/25 11:20:38;;;;;;;0.73;0.40;;;10.00;99.90;;;;;;20874473;28;20033;-78
2023/03/25 11:31:10;;;;;;;1.25;0.30;;;10.50;99.90;;;;;;20910336;28;20024;-77
2023/03/25 11:41:13;;;;;;;3.43;0.70;;;11.90;99.90;;;;;;20907085;28;20121;-77
2023/03/25 11:51:19;;;;;;;4.22;0.80;;;11.10;99.90;;;;;;20906415;28;20120;-78
2023/03/25 12:01:36;;;;;;;1.20;0.55;;;10.90;99.90;;;;;;20906132;28;20037;-78
2023/03/25 12:12:03;;;;;;;2.63;0.90;;;10.50;99.90;;;;;;20904866;28;20029;-78
2023/03/25 12:22:09;;;;;;;5.28;1.70;;;10.20;99.90;;;;;;20902747;28;20044;-77
2023/03/25 12:32:42;;;;;;;3.22;1.48;;;10.70;99.90;;;;;;20853436;28;20029;-77
2023/03/25 12:42:45;;;;;;;2.67;0.60;;;11.10;99.90;;;;;;20834348;28;20036;-78
2023/03/25 12:52:58;;;;;;;6.03;1.15;;;11.80;99.90;;;;;;20902547;28;20041;-77
2023/03/25 13:03:11;;;;;;;2.65;1.10;;;11.90;99.90;;;;;;20903833;28;20585;-77
2023/03/25 13:13:24;;;;;;;2.08;0.80;;;11.60;99.90;;;;;;20903080;28;20039;-77
2023/03/25 13:23:27;;;;;;;4.78;0.75;;;11.70;99.90;;;;;;20906201;28;20029;-78
2023/03/25 13:33:34;;;;;;;0.95;0.43;;;11.70;99.90;;;;;;20917272;28;20601;-77
2023/03/25 13:44:01;;;;;;;2.17;0.47;;;11.60;99.90;;;;;;20917089;28;20032;-78
2023/03/25 13:54:21;;;;;;;3.03;0.52;;;11.70;99.90;;;;;;20921268;28;20155;-78
2023/03/25 14:04:43;;;;;;;1.67;0.50;;;11.60;99.90;;;;;;20914301;28;20584;-78
2023/03/25 14:14:53;;;;;;;3.23;1.10;;;11.50;99.90;;;;;;20940558;28;20114;-78
2023/03/25 14:24:55;;;;;;;6.00;0.90;;;12.20;99.90;;;;;;20888293;28;20137;-77
2023/03/25 14:35:32;;;;;;;5.03;0.68;;;12.60;99.90;;;;;;20841507;28;20119;-77
2023/03/25 14:45:59;;;;;;;3.58;0.73;;;12.10;99.90;;;;;;20865292;28;20388;-77
2023/03/25 14:56:04;;;;;;;2.47;0.57;;;12.10;99.90;;;;;;20911396;28;20065;-78
2023/03/25 15:06:13;;;;;;;1.25;0.45;;;11.80;99.90;;;;;;20892862;28;20060;-79
2023/03/25 15:16:33;;;;;;;1.38;0.50;;;9.80;99.90;;;;;;20887822;28;20056;-79
2023/03/25 15:26:40;;;;;;;2.38;0.57;;;9.50;99.90;;;;;;20916964;28;20036;-78
2023/03/25 15:37:15;;;;;;;4.85;1.00;;;10.20;99.90;;;;;;20902081;28;20681;-79
2023/03/25 15:47:27;;;;;;;5.72;0.90;;;10.40;99.90;;;;;;20841396;28;20128;-78
2023/03/25 15:57:29;;;;;;;;;;;10.20;99.90;;;;;;20909848;28;20036;-79
2023/03/25 16:07:32;;;;;;;1.67;0.77;;;10.00;99.90;;;;;;20909558;28;19948;-80
2023/03/25 16:17:33;;;;;;;1.70;0.70;;;10.10;99.90;;;;;;20889461;28;20030;-79
2023/03/25 16:27:40;;;;;;;6.68;1.27;;;10.10;99.90;;;;;;20894692;28;20037;-78
2023/03/25 16:37:41;;;;;;;5.65;1.38;;;10.00;99.90;;;;;;20880431;28;20037;-77
2023/03/25 16:47:42;;;;;;;6.20;2.07;;;10.00;99.90;;;;;;20881620;28;20036;-77
2023/03/25 16:57:45;;;;;;;4.68;1.23;;;10.10;99.90;;;;;;20885107;28;20030;-77
2023/03/25 17:07:48;;;;;;;3.38;0.85;;;10.10;99.90;;;;;;20849787;28;20037;-77
2023/03/25 17:18:00;;;;;;;3.28;1.00;;;9.90;99.90;;;;;;20852171;28;20036;-77
2023/03/25 17:28:21;;;;;;;6.80;0.95;;;9.70;99.90;;;;;;20834914;28;20036;-78
2023/03/25 17:38:37;;;;;;;7.90;1.80;;;9.60;99.90;;;;;;20872694;28;20028;-78
2023/03/25 17:48:37;;;;;;;4.28;0.88;;;9.50;99.90;;;;;;20916566;28;20043;-77
2023/03/25 17:58:39;;;;;;;6.60;1.03;;;9.00;99.90;;;;;;20912372;28;20036;-78
2023/03/25 18:08:39;;;;;;;2.03;0.77;;;8.60;99.90;;;;;;20912720;28;20099;-77
2023/03/25 18:18:40;;;;;;;7.60;1.10;;;8.70;99.90;;;;;;20914798;28;20033;-78
2023/03/25 18:28:42;;;;;;;1.50;0.80;;;8.80;99.90;;;;;;20914169;28;20025;-78
2023/03/25 18:38:44;;;;;;;6.20;2.70;;;8.70;99.90;;;;;;20912799;28;20032;-78
2023/03/25 18:48:45;;;;;;;4.20;1.63;;;8.80;99.90;;;;;;20875569;28;20492;-78
2023/03/25 18:58:46;;;;;;;6.53;1.00;;;8.80;99.90;;;;;;20828874;28;20029;-78
2023/03/25 19:08:47;;;;;;;4.73;0.77;;;9.00;99.90;;;;;;20869542;28;20036;-77
2023/03/25 19:18:48;;;;;;;1.80;0.68;;;9.20;99.90;;;;;;20886886;28;20048;-77
2023/03/25 19:28:49;;;;;;;1.97;0.67;;;9.20;99.90;;;;;;20908921;28;20032;-77
2023/03/25 19:38:51;;;;;;;4.63;0.73;;;9.30;99.90;;;;;;20907519;28;20434;-78
2023/03/25 19:48:52;;;;;;;1.00;0.70;;;9.40;99.90;;;;;;20889835;28;20105;-77
2023/03/25 19:58:53;;;;;;;1.70;0.87;;;9.40;99.90;;;;;;20899016;28;20057;-77
2023/03/25 20:08:54;;;;;;;5.10;1.00;;;9.30;99.90;;;;;;20906911;28;20032;-78
2023/03/25 20:18:54;;;;;;;8.20;1.57;;;9.40;99.90;;;;;;20906363;28;20170;-78
2023/03/25 20:28:55;;;;;;;6.83;0.90;;;9.50;99.90;;;;;;20908131;28;20124;-77
2023/03/25 20:38:57;;;;;;;6.27;1.00;;;9.60;99.90;;;;;;20918950;28;20040;-77
2023/03/25 20:49:00;;;;;;;6.15;1.50;;;9.60;99.90;;;;;;20926035;28;20116;-78
2023/03/25 20:59:01;;;;;;;5.75;1.35;;;9.50;99.90;;;;;;20919430;28;20040;-77
2023/03/25 21:09:04;;;;;;;8.07;1.88;;;9.40;99.90;;;;;;20915116;28;20377;-77
2023/03/25 21:19:06;;;;;;;97.68;38.53;;;9.30;99.90;;;;;;20916818;28;20029;-77
2023/03/25 21:29:07;;;;;;;14.52;4.35;;;9.30;99.90;;;;;;20912381;28;20036;-77
2023/03/25 21:39:08;;;;;;;9.23;1.73;;;9.40;99.90;;;;;;20911907;28;20043;-76
2023/03/25 21:49:10;;;;;;;9.53;1.40;;;9.40;99.90;;;;;;20909939;28;20029;-78
2023/03/25 21:59:11;;;;;;;7.65;1.50;;;9.30;99.90;;;;;;20911567;28;20025;-77
2023/03/25 22:09:12;;;;;;;6.07;1.30;;;9.30;99.90;;;;;;20873664;28;1131200;-77
2023/03/25 22:19:12;;;;;;;5.87;1.97;;;9.20;99.90;;;;;;20898380;28;20030;-78
2023/03/25 22:29:13;;;;;;;4.37;1.43;;;9.20;99.90;;;;;;20837833;28;20025;-78
2023/03/25 22:39:17;;;;;;;6.30;1.10;;;9.10;99.90;;;;;;20833677;28;20032;-77
2023/03/25 22:49:18;;;;;;;8.73;1.23;;;9.10;99.90;;;;;;20893075;28;20103;-78
2023/03/25 22:59:19;;;;;;;6.60;1.30;;;9.10;99.90;;;;;;20911923;28;20092;-78
2023/03/25 23:09:39;;;;;;;4.23;1.80;;;9.10;99.90;;;;;;20912612;28;20641;-78
2023/03/25 23:19:40;;;;;;;11.57;1.58;;;9.00;99.90;;;;;;20911904;28;20087;-78
2023/03/25 23:29:41;;;;;;;7.47;2.00;;;8.60;99.90;;;;;;20911901;28;20036;-77
2023/03/25 23:39:45;;;;;;;9.17;1.80;;;8.60;99.90;;;;;;20910523;28;20124;-77
2023/03/25 23:49:45;;;;;;;9.88;1.50;;;8.70;99.90;;;;;;20909870;28;20068;-77
2023/03/25 23:59:46;;;;;;;6.17;1.53;;;8.80;99.90;;;;;;20908220;28;20021;-78
